createdAt,value
2018-09-09T00:04:52.900Z,100731.00
2018-09-09T00:09:56.933Z,100712.00
2018-09-09T00:15:00.834Z,100653.00
2018-09-09T00:20:05.142Z,100625.00
2018-09-09T00:25:08.947Z,100609.00
2018-09-09T00:30:12.983Z,100574.00
2018-09-09T00:35:17.033Z,100540.00
2018-09-09T00:40:21.059Z,100527.00
2018-09-09T00:45:25.157Z,100515.00
2018-09-09T00:50:34.418Z,100500.00
2018-09-09T00:55:38.191Z,100493.00
2018-09-09T01:00:47.428Z,100492.00
2018-09-09T01:05:51.261Z,100481.00
2018-09-09T01:10:55.058Z,100474.00
2018-09-09T01:15:58.859Z,100467.00
2018-09-09T01:21:02.898Z,100447.00
2018-09-09T01:26:07.043Z,100430.00
2018-09-09T01:31:11.065Z,100396.00
2018-09-09T01:36:14.903Z,100359.00
2018-09-09T01:41:18.935Z,100315.00
2018-09-09T01:46:23.048Z,100262.00
2018-09-09T01:51:27.090Z,100260.00
2018-09-09T01:56:31.187Z,100268.00
2018-09-09T02:01:34.993Z,100285.00
2018-09-09T02:06:38.786Z,100293.00
2018-09-09T02:11:42.828Z,100309.00
2018-09-09T02:16:46.875Z,100328.00
2018-09-09T02:21:50.914Z,100323.00
2018-09-09T02:26:54.946Z,100310.00
2018-09-09T02:31:58.788Z,100275.00
2018-09-09T02:37:02.602Z,100250.00
2018-09-09T02:42:06.744Z,100256.00
2018-09-09T02:47:10.883Z,100260.00
2018-09-09T02:52:14.949Z,100272.00
2018-09-09T02:57:18.770Z,100292.00
2018-09-09T03:02:22.645Z,100314.00
2018-09-09T03:07:26.466Z,100336.00
2018-09-09T03:12:30.376Z,100363.00
2018-09-09T03:17:34.518Z,100384.00
2018-09-09T03:22:38.313Z,100389.00
2018-09-09T03:27:42.337Z,100385.00
2018-09-09T03:32:46.191Z,100367.00
2018-09-09T03:37:50.223Z,100361.00
2018-09-09T03:42:54.017Z,100322.00
2018-09-09T03:47:58.611Z,100315.00
2018-09-09T03:53:02.706Z,100363.00
2018-09-09T03:58:06.819Z,100401.00
2018-09-09T04:03:17.146Z,100420.00
2018-09-09T04:08:21.257Z,100441.00
2018-09-09T04:13:25.080Z,100424.00
2018-09-09T04:18:30.129Z,100421.00
2018-09-09T04:23:34.223Z,100419.00
2018-09-09T04:28:38.322Z,100435.00
2018-09-09T04:33:42.157Z,100472.00
2018-09-09T04:38:46.791Z,100513.00
2018-09-09T04:43:50.848Z,100530.00
2018-09-09T04:48:54.879Z,100570.00
2018-09-09T04:53:58.926Z,100592.00
2018-09-09T04:59:02.734Z,100634.00
2018-09-09T05:04:06.573Z,100644.00
2018-09-09T05:09:10.634Z,100648.00
2018-09-09T05:14:14.678Z,100622.00
2018-09-09T05:19:18.702Z,100592.00
2018-09-09T05:24:22.751Z,100613.00
2018-09-09T05:29:26.549Z,100607.00
2018-09-09T05:34:30.822Z,100612.00
2018-09-09T05:39:34.947Z,100601.00
2018-09-09T05:44:38.811Z,100584.00
2018-09-09T05:49:42.585Z,100567.00
2018-09-09T05:54:46.443Z,100604.00
2018-09-09T05:59:50.583Z,100642.00
2018-09-09T06:04:54.967Z,100704.00
2018-09-09T06:09:59.295Z,100743.00
2018-09-09T06:15:03.464Z,100764.00
2018-09-09T06:20:07.877Z,100753.00
2018-09-09T06:25:11.718Z,100772.00
2018-09-09T06:30:15.919Z,100783.00
2018-09-09T06:35:20.013Z,100814.00
2018-09-09T06:40:23.902Z,100845.00
2018-09-09T06:45:28.038Z,100874.00
2018-09-09T06:50:31.857Z,100943.00
2018-09-09T06:55:35.942Z,101044.00
2018-09-09T07:00:39.781Z,101083.00
2018-09-09T07:05:43.628Z,101082.00
2018-09-09T07:10:47.754Z,101103.00
2018-09-09T07:15:51.851Z,101106.00
2018-09-09T07:20:55.929Z,101114.00
2018-09-09T07:25:59.817Z,101121.00
2018-09-09T07:31:03.925Z,101113.00
2018-09-09T07:36:08.075Z,101106.00
2018-09-09T07:41:11.902Z,101115.00
2018-09-09T07:46:16.010Z,101139.00
2018-09-09T07:51:20.090Z,101195.00
2018-09-09T07:56:23.950Z,101229.00
2018-09-09T08:01:28.089Z,101254.00
2018-09-09T08:06:31.922Z,101238.00
2018-09-09T08:11:36.855Z,101257.00
2018-09-09T08:16:40.963Z,101346.00
2018-09-09T08:21:45.678Z,101389.00
2018-09-09T08:26:49.923Z,101462.00
2018-09-09T08:31:54.022Z,101474.00
2018-09-09T08:36:57.858Z,101485.00
2018-09-09T08:42:01.745Z,101476.00
2018-09-09T08:47:05.866Z,101482.00
2018-09-09T08:52:10.045Z,101482.00
2018-09-09T08:57:14.747Z,101482.00
2018-09-09T09:02:18.608Z,101484.00
2018-09-09T09:07:22.782Z,101482.00
2018-09-09T09:12:26.858Z,101484.00
2018-09-09T09:17:30.995Z,101488.00
2018-09-09T09:22:35.123Z,101494.00
2018-09-09T09:27:38.961Z,101501.00
2018-09-09T09:32:46.414Z,101498.00
2018-09-09T09:37:50.556Z,101489.00
2018-09-09T09:42:54.653Z,101481.00
2018-09-09T09:47:58.957Z,101471.00
2018-09-09T09:53:03.123Z,101473.00
2018-09-09T09:58:07.436Z,101473.00
2018-09-09T10:03:11.550Z,101510.00
2018-09-09T10:08:15.405Z,101496.00
2018-09-09T10:13:19.480Z,101497.00
2018-09-09T10:18:23.302Z,101509.00
2018-09-09T10:23:27.148Z,101501.00
2018-09-09T10:28:31.026Z,101506.00
2018-09-09T10:33:35.111Z,101490.00
2018-09-09T10:38:38.929Z,101499.00
2018-09-09T10:43:42.774Z,101489.00
2018-09-09T10:48:46.862Z,101487.00
2018-09-09T10:53:50.922Z,101479.00
2018-09-09T10:58:54.835Z,101478.00
2018-09-09T11:03:58.559Z,101462.00
2018-09-09T11:09:02.588Z,101464.00
2018-09-09T11:14:06.436Z,101460.00
2018-09-09T11:19:10.471Z,101450.00
2018-09-09T11:24:14.407Z,101444.00
2018-09-09T11:29:18.314Z,101443.00
2018-09-09T11:34:22.239Z,101442.00
2018-09-09T11:39:26.030Z,101441.00
2018-09-09T11:44:29.866Z,101431.00
2018-09-09T11:49:33.916Z,101425.00
2018-09-09T11:54:38.061Z,101422.00
2018-09-09T11:59:41.859Z,101409.00
2018-09-09T12:04:45.950Z,101406.00
2018-09-09T12:09:50.228Z,101397.00
2018-09-09T12:14:54.422Z,101400.00
2018-09-09T12:19:58.437Z,101395.00
2018-09-09T12:25:02.461Z,101395.00
2018-09-09T12:30:06.941Z,101398.00
2018-09-09T12:35:10.742Z,101392.00
2018-09-09T12:40:14.854Z,101391.00
2018-09-09T12:45:24.235Z,101394.00
2018-09-09T12:50:28.381Z,101393.00
2018-09-09T12:55:32.466Z,101383.00
2018-09-09T13:00:36.656Z,101386.00
2018-09-09T13:05:40.718Z,101400.00
2018-09-09T13:10:44.831Z,101393.00
2018-09-09T13:15:49.455Z,101397.00
2018-09-09T13:20:53.284Z,101390.00
2018-09-09T13:25:57.359Z,101383.00
2018-09-09T13:31:01.446Z,101376.00
2018-09-09T13:36:06.463Z,101380.00
2018-09-09T13:41:11.372Z,101372.00
2018-09-09T13:46:15.488Z,101376.00
2018-09-09T13:51:19.578Z,101368.00
2018-09-09T13:56:23.434Z,101364.00
2018-09-09T14:01:27.265Z,101375.00
2018-09-09T14:06:31.118Z,101361.00
2018-09-09T14:11:35.252Z,101360.00
2018-09-09T14:16:39.318Z,101357.00
2018-09-09T14:21:43.415Z,101353.00
2018-09-09T14:26:47.481Z,101351.00
2018-09-09T14:31:51.662Z,101348.00
2018-09-09T14:36:55.750Z,101347.00
2018-09-09T14:41:59.568Z,101347.00
2018-09-09T14:47:03.634Z,101338.00
2018-09-09T14:52:07.532Z,101340.00
2018-09-09T14:57:11.593Z,101338.00
2018-09-09T15:02:16.212Z,101330.00
2018-09-09T15:07:20.137Z,101327.00
2018-09-09T15:12:23.973Z,101326.00
2018-09-09T15:17:27.860Z,101319.00
2018-09-09T15:22:31.763Z,101325.00
2018-09-09T15:27:35.539Z,101323.00
2018-09-09T15:32:39.333Z,101331.00
2018-09-09T15:37:43.201Z,101334.00
2018-09-09T15:42:47.018Z,101323.00
2018-09-09T15:47:51.119Z,101323.00
2018-09-09T15:52:55.176Z,101323.00
2018-09-09T15:57:59.227Z,101326.00
2018-09-09T16:03:03.245Z,101329.00
2018-09-09T16:08:07.507Z,101325.00
2018-09-09T16:13:11.342Z,101326.00
2018-09-09T16:18:15.265Z,101328.00
2018-09-09T16:23:19.412Z,101322.00
2018-09-09T16:28:23.457Z,101316.00
2018-09-09T16:33:27.546Z,101329.00
2018-09-09T16:38:31.466Z,101338.00
2018-09-09T16:43:35.651Z,101345.00
2018-09-09T16:48:39.467Z,101336.00
2018-09-09T16:53:43.519Z,101335.00
2018-09-09T16:58:47.539Z,101330.00
2018-09-09T17:03:51.545Z,101330.00
2018-09-09T17:08:55.606Z,101329.00
2018-09-09T17:13:59.687Z,101331.00
2018-09-09T17:19:03.511Z,101332.00
2018-09-09T17:24:07.366Z,101336.00
2018-09-09T17:29:11.399Z,101327.00
2018-09-09T17:34:15.506Z,101330.00
2018-09-09T17:39:19.354Z,101334.00
2018-09-09T17:44:23.547Z,101334.00
2018-09-09T17:49:27.711Z,101337.00
2018-09-09T17:54:31.838Z,101346.00
2018-09-09T17:59:35.942Z,101347.00
2018-09-09T18:04:39.785Z,101353.00
2018-09-09T18:09:43.670Z,101352.00
2018-09-09T18:14:47.507Z,101358.00
2018-09-09T18:19:51.619Z,101356.00
2018-09-09T18:24:56.167Z,101361.00
2018-09-09T18:30:00.005Z,101362.00
2018-09-09T18:35:04.307Z,101354.00
2018-09-09T18:40:08.352Z,101358.00
2018-09-09T18:45:12.414Z,101361.00
2018-09-09T18:50:16.389Z,101355.00
2018-09-09T18:55:20.640Z,101356.00
2018-09-09T19:00:24.636Z,101360.00
2018-09-09T19:05:28.619Z,101359.00
2018-09-09T19:10:32.881Z,101360.00
2018-09-09T19:15:37.187Z,101358.00
2018-09-09T19:20:41.385Z,101360.00
2018-09-09T19:25:45.650Z,101356.00
2018-09-09T19:30:49.798Z,101364.00
2018-09-09T19:35:53.677Z,101366.00
2018-09-09T19:40:58.173Z,101371.00
2018-09-09T19:46:02.282Z,101373.00
2018-09-09T19:51:06.525Z,101371.00
2018-09-09T19:56:10.583Z,101372.00
2018-09-09T20:01:15.461Z,101379.00
2018-09-09T20:06:19.547Z,101379.00
2018-09-09T20:11:29.874Z,101369.00
2018-09-09T20:16:33.721Z,101359.00
2018-09-09T20:21:37.914Z,101361.00
2018-09-09T20:26:41.750Z,101357.00
2018-09-09T20:31:45.870Z,101356.00
2018-09-09T20:36:50.766Z,101356.00
2018-09-09T20:41:54.850Z,101355.00
2018-09-09T20:46:58.938Z,101354.00
2018-09-09T20:52:03.007Z,101351.00
2018-09-09T20:57:07.938Z,101354.00
2018-09-09T21:02:11.995Z,101346.00
2018-09-09T21:07:16.152Z,101360.00
2018-09-09T21:12:20.265Z,101363.00
2018-09-09T21:17:24.411Z,101359.00
2018-09-09T21:22:28.681Z,101355.00
2018-09-09T21:27:32.754Z,101349.00
2018-09-09T21:32:36.854Z,101332.00
2018-09-09T21:37:40.662Z,101312.00
2018-09-09T21:42:44.782Z,101293.00
2018-09-09T21:47:48.846Z,101288.00
2018-09-09T21:52:52.950Z,101276.00
2018-09-09T21:57:57.041Z,101250.00
2018-09-09T22:03:00.861Z,101235.00
2018-09-09T22:08:04.930Z,101211.00
2018-09-09T22:13:08.764Z,101198.00
2018-09-09T22:18:12.605Z,101195.00
2018-09-09T22:23:16.430Z,101195.00
2018-09-09T22:28:20.614Z,101201.00
2018-09-09T22:33:24.686Z,101201.00
2018-09-09T22:38:28.771Z,101211.00
2018-09-09T22:53:07.259Z,101219.00
2018-09-09T22:58:11.081Z,101226.00
2018-09-09T23:03:15.166Z,101232.00
2018-09-09T23:08:19.078Z,101230.00
2018-09-09T23:13:23.142Z,101220.00
2018-09-09T23:18:27.227Z,101210.00
2018-09-09T23:23:31.319Z,101211.00
2018-09-09T23:28:35.179Z,101195.00
2018-09-09T23:33:39.290Z,101176.00
2018-09-09T23:38:43.143Z,101175.00
2018-09-09T23:43:47.298Z,101166.00
2018-09-09T23:48:51.494Z,101150.00
2018-09-09T23:53:55.558Z,101152.00
2018-09-09T23:58:59.620Z,101163.00
